Aviation Digital Data Service (ADDS)

Output produced by TAFs form (1831 UTC 06 February 2016)
found at http://www.aviationweather.gov/adds/tafs/
 
KPSF 061721Z 0618/0718 23009KT P6SM SCT050 BKN100 
     FM062300 22004KT P6SM FEW050 SCT100 
     FM071200 26006KT P6SM FEW100